createdAt,value
2017-08-04T00:00:48.796Z,17.00
2017-08-04T00:03:19.382Z,17.00
2017-08-04T00:05:50.306Z,17.00
2017-08-04T00:08:19.088Z,16.90
2017-08-04T00:10:48.009Z,16.90
2017-08-04T00:13:16.447Z,16.80
2017-08-04T00:15:46.288Z,16.90
2017-08-04T00:18:15.365Z,16.90
2017-08-04T00:20:45.612Z,16.90
2017-08-04T00:23:14.134Z,16.90
2017-08-04T00:25:42.889Z,16.80
2017-08-04T00:28:11.261Z,16.80
2017-08-04T00:30:39.630Z,16.80
2017-08-04T00:33:08.304Z,16.80
2017-08-04T00:35:36.632Z,16.80
2017-08-04T00:38:04.942Z,16.80
2017-08-04T00:40:33.505Z,16.70
2017-08-04T00:43:01.817Z,16.70
2017-08-04T00:45:30.156Z,16.70
2017-08-04T00:47:58.537Z,16.70
2017-08-04T00:50:28.993Z,16.60
2017-08-04T00:52:57.340Z,16.60
2017-08-04T00:55:26.596Z,16.60
2017-08-04T00:57:55.250Z,16.60
2017-08-04T01:00:23.872Z,16.70
2017-08-04T01:02:52.756Z,16.70
2017-08-04T01:05:21.751Z,16.70
2017-08-04T01:07:51.635Z,16.70
2017-08-04T01:10:21.479Z,16.60
2017-08-04T01:12:51.165Z,16.60
2017-08-04T01:15:19.950Z,16.60
2017-08-04T01:17:49.891Z,16.60
2017-08-04T01:20:18.659Z,16.60
2017-08-04T01:22:50.449Z,16.50
2017-08-04T01:25:20.562Z,16.50
2017-08-04T01:27:49.720Z,16.40
2017-08-04T01:30:18.442Z,16.40
2017-08-04T01:32:48.533Z,16.40
2017-08-04T01:35:17.682Z,16.40
2017-08-04T01:37:46.518Z,16.40
2017-08-04T01:40:16.849Z,16.40
2017-08-04T01:42:46.030Z,16.40
2017-08-04T01:45:14.867Z,16.40
2017-08-04T01:47:43.790Z,16.30
2017-08-04T01:50:12.237Z,16.30
2017-08-04T01:52:40.590Z,16.30
2017-08-04T01:55:09.073Z,16.30
2017-08-04T01:57:37.397Z,16.20
2017-08-04T02:00:05.731Z,16.20
2017-08-04T02:02:34.539Z,16.20
2017-08-04T02:05:03.622Z,16.20
2017-08-04T02:07:32.732Z,16.20
2017-08-04T02:10:02.097Z,16.20
2017-08-04T02:12:31.287Z,16.20
2017-08-04T02:14:59.617Z,16.20
2017-08-04T02:17:28.401Z,16.20
2017-08-04T02:19:56.925Z,16.20
2017-08-04T02:22:25.515Z,16.10
2017-08-04T02:24:56.816Z,16.10
2017-08-04T02:27:25.674Z,16.10
2017-08-04T02:29:54.632Z,16.10
2017-08-04T02:32:23.849Z,16.10
2017-08-04T02:34:52.594Z,16.10
2017-08-04T02:37:21.760Z,16.10
2017-08-04T02:39:52.121Z,16.10
2017-08-04T02:42:20.970Z,16.00
2017-08-04T02:44:50.964Z,16.00
2017-08-04T02:47:20.037Z,16.00
2017-08-04T02:49:49.461Z,16.00
2017-08-04T02:52:19.249Z,15.90
2017-08-04T02:54:49.366Z,15.90
2017-08-04T02:57:18.141Z,16.00
2017-08-04T02:59:48.593Z,16.00
2017-08-04T03:02:18.707Z,16.00
2017-08-04T03:04:48.340Z,16.00
2017-08-04T03:07:17.118Z,15.90
2017-08-04T03:09:47.703Z,16.00
2017-08-04T03:12:18.205Z,16.00
2017-08-04T03:14:46.941Z,16.10
2017-08-04T03:17:17.008Z,16.10
2017-08-04T03:19:46.098Z,16.10
2017-08-04T03:22:14.737Z,16.10
2017-08-04T03:24:43.410Z,16.20
2017-08-04T03:27:12.281Z,16.20
2017-08-04T03:29:40.625Z,16.10
2017-08-04T03:32:12.602Z,16.10
2017-08-04T03:34:40.929Z,16.10
2017-08-04T03:37:11.149Z,16.10
2017-08-04T03:39:40.697Z,16.10
2017-08-04T03:42:09.031Z,16.10
2017-08-04T03:44:38.194Z,16.10
2017-08-04T03:47:06.781Z,16.10
2017-08-04T03:49:35.113Z,16.10
2017-08-04T03:52:04.291Z,16.10
2017-08-04T03:54:33.734Z,16.00
2017-08-04T03:57:02.297Z,16.00
2017-08-04T03:59:31.121Z,16.00
2017-08-04T04:02:01.746Z,16.10
2017-08-04T04:04:30.342Z,16.10
2017-08-04T04:06:58.817Z,16.10
2017-08-04T04:09:28.723Z,16.10
2017-08-04T04:11:57.473Z,16.10
2017-08-04T04:14:26.035Z,16.20
2017-08-04T04:16:55.342Z,16.20
2017-08-04T04:19:25.130Z,16.20
2017-08-04T04:21:53.915Z,16.20
2017-08-04T04:24:23.248Z,16.20
2017-08-04T04:26:51.743Z,16.30
2017-08-04T04:29:21.484Z,16.30
2017-08-04T04:31:50.793Z,16.40
2017-08-04T04:34:20.211Z,16.40
2017-08-04T04:36:49.591Z,16.40
2017-08-04T04:39:18.916Z,16.40
2017-08-04T04:41:47.354Z,16.40
2017-08-04T04:44:15.797Z,16.40
2017-08-04T04:46:44.540Z,16.30
2017-08-04T04:49:12.870Z,16.40
2017-08-04T04:51:41.200Z,16.40
2017-08-04T04:54:09.927Z,16.40
2017-08-04T04:56:38.266Z,16.40
2017-08-04T04:59:06.601Z,16.40
2017-08-04T05:01:36.031Z,16.50
2017-08-04T05:04:04.349Z,16.50
2017-08-04T05:06:32.686Z,16.60
2017-08-04T05:09:01.310Z,16.60
2017-08-04T05:11:29.621Z,16.60
2017-08-04T05:13:58.704Z,16.60
2017-08-04T05:16:28.261Z,16.70
2017-08-04T05:18:56.623Z,16.70
2017-08-04T05:21:24.965Z,16.70
2017-08-04T05:23:55.093Z,16.70
2017-08-04T05:26:23.444Z,16.70
2017-08-04T05:28:51.847Z,16.70
2017-08-04T05:31:20.685Z,16.70
2017-08-04T05:33:49.054Z,16.70
2017-08-04T05:36:17.402Z,16.80
2017-08-04T05:38:46.355Z,16.80
2017-08-04T05:41:14.730Z,16.80
2017-08-04T05:43:43.044Z,16.80
2017-08-04T05:46:11.389Z,16.80
2017-08-04T05:48:39.700Z,16.80
2017-08-04T05:51:08.040Z,16.90
2017-08-04T05:53:37.472Z,16.90
2017-08-04T05:56:05.785Z,16.90
2017-08-04T05:58:34.094Z,16.80
2017-08-04T06:01:02.885Z,16.90
2017-08-04T06:03:31.197Z,16.90
2017-08-04T06:06:00.273Z,16.90
2017-08-04T06:08:29.911Z,16.90
2017-08-04T06:10:58.233Z,16.80
2017-08-04T06:13:27.311Z,16.90
2017-08-04T06:15:57.369Z,16.90
2017-08-04T06:18:25.676Z,16.80
2017-08-04T06:20:54.749Z,16.80
2017-08-04T06:23:24.485Z,16.80
2017-08-04T06:25:52.836Z,16.80
2017-08-04T06:28:21.188Z,16.90
2017-08-04T06:30:50.117Z,16.90
2017-08-04T06:33:19.207Z,17.00
2017-08-04T06:35:47.661Z,17.10
2017-08-04T06:38:16.264Z,17.10
2017-08-04T06:40:44.676Z,17.20
2017-08-04T06:43:13.015Z,17.20
2017-08-04T06:45:41.504Z,17.20
2017-08-04T06:48:21.809Z,17.30
2017-08-04T06:51:02.448Z,17.40
2017-08-04T06:53:44.351Z,17.50
2017-08-04T06:56:14.208Z,17.50
2017-08-04T06:58:42.557Z,17.50
2017-08-04T07:01:10.885Z,17.50
2017-08-04T07:03:39.434Z,17.50
2017-08-04T07:06:07.799Z,17.50
2017-08-04T07:08:36.144Z,17.60
2017-08-04T07:11:05.624Z,18.10
2017-08-04T07:13:33.941Z,18.10
2017-08-04T07:16:02.274Z,18.30
2017-08-04T07:18:30.665Z,18.30
2017-08-04T07:20:58.978Z,18.30
2017-08-04T07:23:28.065Z,18.50
2017-08-04T07:25:56.428Z,18.50
2017-08-04T07:28:25.527Z,18.80
2017-08-04T07:30:53.953Z,18.80
2017-08-04T07:33:23.214Z,19.00
2017-08-04T07:35:51.555Z,19.20
2017-08-04T07:38:19.947Z,19.40
2017-08-04T07:40:48.700Z,19.40
2017-08-04T07:43:17.080Z,19.50
2017-08-04T07:45:45.498Z,19.40
2017-08-04T07:48:15.647Z,19.50
2017-08-04T07:50:43.981Z,19.50
2017-08-04T07:53:12.337Z,19.60
2017-08-04T07:55:43.187Z,19.80
2017-08-04T07:58:11.515Z,19.80
2017-08-04T08:00:40.581Z,19.70
2017-08-04T08:03:10.064Z,19.80
2017-08-04T08:05:39.132Z,20.00
2017-08-04T08:08:07.472Z,19.90
2017-08-04T08:10:36.365Z,20.00
2017-08-04T08:13:04.684Z,19.90
2017-08-04T08:15:33.020Z,19.60
2017-08-04T08:18:02.178Z,19.40
2017-08-04T08:20:30.493Z,19.30
2017-08-04T08:22:58.867Z,19.30
2017-08-04T08:25:28.993Z,19.40
2017-08-04T08:27:57.730Z,19.50
2017-08-04T08:30:26.333Z,19.70
2017-08-04T08:32:55.231Z,20.00
2017-08-04T08:35:24.666Z,20.00
2017-08-04T08:37:53.754Z,20.20
2017-08-04T08:40:24.699Z,20.30
2017-08-04T08:42:56.326Z,20.30
2017-08-04T08:45:26.243Z,20.30
2017-08-04T08:47:54.961Z,20.20
2017-08-04T08:50:23.503Z,20.20
2017-08-04T08:52:53.660Z,20.20
2017-08-04T08:55:22.431Z,20.10
2017-08-04T08:57:51.111Z,20.10
2017-08-04T09:00:21.144Z,20.10
2017-08-04T09:02:49.929Z,20.30
2017-08-04T09:05:20.534Z,20.50
2017-08-04T09:07:50.782Z,20.60
2017-08-04T09:10:19.956Z,20.80
2017-08-04T09:12:49.052Z,21.00
2017-08-04T09:15:19.684Z,20.80
2017-08-04T09:17:49.631Z,20.80
2017-08-04T09:20:18.732Z,20.90
2017-08-04T09:22:52.135Z,21.00
2017-08-04T09:25:21.230Z,20.80
2017-08-04T09:27:51.012Z,20.60
2017-08-04T09:30:20.495Z,20.40
2017-08-04T09:32:50.335Z,20.60
2017-08-04T09:35:18.863Z,20.60
2017-08-04T09:37:49.849Z,20.70
2017-08-04T09:40:18.498Z,21.00
2017-08-04T09:42:48.045Z,21.20
2017-08-04T09:45:17.779Z,21.80
2017-08-04T09:47:48.098Z,22.10
2017-08-04T09:50:18.586Z,22.50
2017-08-04T09:52:49.683Z,22.40
2017-08-04T09:55:18.874Z,22.30
2017-08-04T09:57:48.300Z,22.10
2017-08-04T10:00:17.141Z,21.90
2017-08-04T10:02:46.863Z,21.50
2017-08-04T10:05:17.430Z,21.40
2017-08-04T10:07:46.794Z,21.50
2017-08-04T10:10:15.610Z,21.20
2017-08-04T10:12:44.975Z,21.10
2017-08-04T10:15:15.249Z,21.30
2017-08-04T10:17:45.499Z,21.60
2017-08-04T10:20:13.885Z,21.60
2017-08-04T10:22:43.376Z,22.90
2017-08-04T10:25:11.714Z,22.80
2017-08-04T10:27:40.102Z,22.50
2017-08-04T10:30:09.078Z,22.20
2017-08-04T10:32:37.389Z,22.00
2017-08-04T10:35:06.481Z,21.20
2017-08-04T10:37:35.372Z,21.20
2017-08-04T10:40:04.552Z,20.90
2017-08-04T10:42:32.876Z,20.70
2017-08-04T10:45:02.338Z,20.40
2017-08-04T10:47:30.739Z,20.00
2017-08-04T10:49:59.115Z,19.90
2017-08-04T10:52:32.192Z,19.80
2017-08-04T10:55:00.567Z,19.80
2017-08-04T10:57:28.921Z,19.90
2017-08-04T10:59:58.436Z,20.30
2017-08-04T11:02:26.830Z,20.50
2017-08-04T11:04:55.221Z,20.70
2017-08-04T11:07:24.251Z,20.80
2017-08-04T11:09:52.746Z,20.80
2017-08-04T11:12:21.257Z,20.90
2017-08-04T11:14:49.858Z,21.00
2017-08-04T11:17:19.317Z,21.20
2017-08-04T11:19:48.443Z,21.70
2017-08-04T11:22:18.966Z,23.00
2017-08-04T11:24:49.889Z,23.80
2017-08-04T11:27:18.724Z,23.80
2017-08-04T11:29:47.626Z,24.40
2017-08-04T11:32:16.218Z,24.30
2017-08-04T11:34:46.142Z,24.20
2017-08-04T11:37:15.658Z,24.40
2017-08-04T11:39:44.045Z,24.30
2017-08-04T11:42:13.281Z,24.40
2017-08-04T11:44:41.978Z,24.30
2017-08-04T11:47:10.304Z,23.60
2017-08-04T11:49:38.625Z,23.80
2017-08-04T11:52:07.911Z,23.70
2017-08-04T11:54:36.234Z,23.90
2017-08-04T11:57:04.586Z,24.10
2017-08-04T11:59:33.274Z,23.80
2017-08-04T12:02:01.601Z,24.00
2017-08-04T12:04:30.702Z,23.30
2017-08-04T12:06:59.428Z,23.30
2017-08-04T12:09:27.853Z,23.00
2017-08-04T12:11:56.315Z,22.70
2017-08-04T12:14:25.917Z,22.00
2017-08-04T12:16:54.605Z,22.00
2017-08-04T12:19:23.324Z,21.80
2017-08-04T12:21:52.888Z,21.70
2017-08-04T12:24:21.543Z,21.70
2017-08-04T12:26:50.171Z,22.10
2017-08-04T12:29:20.498Z,22.50
2017-08-04T12:31:49.289Z,22.00
2017-08-04T12:34:18.176Z,21.50
2017-08-04T12:36:47.699Z,20.70
2017-08-04T12:39:16.364Z,20.70
2017-08-04T12:41:45.193Z,20.20
2017-08-04T12:44:14.453Z,19.50
2017-08-04T12:46:42.896Z,19.20
2017-08-04T12:49:11.986Z,19.30
2017-08-04T12:51:40.544Z,19.30
2017-08-04T12:54:09.667Z,19.40
2017-08-04T12:56:38.014Z,19.40
2017-08-04T12:59:06.654Z,19.50
2017-08-04T13:01:35.729Z,20.40
2017-08-04T13:04:06.823Z,21.50
2017-08-04T13:06:35.379Z,21.50
2017-08-04T13:09:03.768Z,22.50
2017-08-04T13:11:32.092Z,23.30
2017-08-04T13:14:00.537Z,23.50
2017-08-04T13:16:29.295Z,23.80
2017-08-04T13:18:57.966Z,23.80
2017-08-04T13:21:27.435Z,24.00
2017-08-04T13:23:56.085Z,24.10
2017-08-04T13:26:24.493Z,24.00
2017-08-04T13:28:53.404Z,24.20
2017-08-04T13:31:22.069Z,24.20
2017-08-04T13:33:51.040Z,23.80
2017-08-04T13:36:20.629Z,23.80
2017-08-04T13:38:50.467Z,23.90
2017-08-04T13:41:19.214Z,23.90
2017-08-04T13:43:48.521Z,23.40
2017-08-04T13:46:17.507Z,22.70
2017-08-04T13:48:46.722Z,22.30
2017-08-04T13:51:16.733Z,22.00
2017-08-04T13:53:45.737Z,21.60
2017-08-04T13:56:14.106Z,21.40
2017-08-04T13:58:43.164Z,22.10
2017-08-04T14:01:11.574Z,23.20
2017-08-04T14:03:39.904Z,23.20
2017-08-04T14:06:09.107Z,22.80
2017-08-04T14:08:37.411Z,22.60
2017-08-04T14:11:06.505Z,21.90
2017-08-04T14:13:36.632Z,21.90
2017-08-04T14:16:05.933Z,21.60
2017-08-04T14:18:34.305Z,21.50
2017-08-04T14:21:02.897Z,21.50
2017-08-04T14:23:31.246Z,21.40
2017-08-04T14:25:59.979Z,21.20
2017-08-04T14:28:28.887Z,21.20
2017-08-04T14:30:58.252Z,21.60
2017-08-04T14:33:26.874Z,21.90
2017-08-04T14:35:56.510Z,22.30
2017-08-04T14:38:25.024Z,22.70
2017-08-04T14:40:53.414Z,22.90
2017-08-04T14:43:22.502Z,22.60
2017-08-04T14:45:51.188Z,22.00
2017-08-04T14:48:19.914Z,21.50
2017-08-04T14:50:48.779Z,21.30
2017-08-04T14:53:18.392Z,21.30
2017-08-04T14:55:47.972Z,21.20
2017-08-04T14:58:18.932Z,22.10
2017-08-04T15:00:47.947Z,22.10
2017-08-04T15:03:17.023Z,22.20
2017-08-04T15:05:46.450Z,22.30
2017-08-04T15:08:15.106Z,22.20
2017-08-04T15:10:43.545Z,22.60
2017-08-04T15:13:13.241Z,23.30
2017-08-04T15:15:41.580Z,23.30
2017-08-04T15:18:09.902Z,23.30
2017-08-04T15:20:39.238Z,23.80
2017-08-04T15:23:07.585Z,23.80
2017-08-04T15:25:35.917Z,24.10
2017-08-04T15:28:05.606Z,24.10
2017-08-04T15:30:33.954Z,24.10
2017-08-04T15:33:02.404Z,24.10
2017-08-04T15:35:31.816Z,24.20
2017-08-04T15:38:01.000Z,24.50
2017-08-04T15:40:29.676Z,24.50
2017-08-04T15:42:58.879Z,24.10
2017-08-04T15:45:27.539Z,23.90
2017-08-04T15:47:56.256Z,23.70
2017-08-04T15:50:25.718Z,23.80
2017-08-04T15:52:54.629Z,23.00
2017-08-04T15:55:23.504Z,22.30
2017-08-04T15:57:52.621Z,21.90
2017-08-04T16:00:21.291Z,21.60
2017-08-04T16:02:51.095Z,21.90
2017-08-04T16:05:20.878Z,21.70
2017-08-04T16:07:49.531Z,21.70
2017-08-04T16:10:19.077Z,21.90
2017-08-04T16:12:48.498Z,21.70
2017-08-04T16:15:18.656Z,21.70
2017-08-04T16:17:47.999Z,21.60
2017-08-04T16:20:18.351Z,21.40
2017-08-04T16:22:47.775Z,21.40
2017-08-04T16:25:17.548Z,21.10
2017-08-04T16:27:46.913Z,20.90
2017-08-04T16:30:18.028Z,20.90
2017-08-04T16:32:49.100Z,20.90
2017-08-04T16:35:18.328Z,20.80
2017-08-04T16:37:47.313Z,20.80
2017-08-04T16:40:17.574Z,20.80
2017-08-04T16:42:46.535Z,20.70
2017-08-04T16:45:17.186Z,20.70
2017-08-04T16:47:47.221Z,20.70
2017-08-04T16:50:16.849Z,20.70
2017-08-04T16:52:47.333Z,20.60
2017-08-04T16:55:16.674Z,20.60
2017-08-04T16:57:45.671Z,20.40
2017-08-04T17:00:14.505Z,20.30
2017-08-04T17:02:43.279Z,20.10
2017-08-04T17:05:11.626Z,20.10
2017-08-04T17:07:39.972Z,20.10
2017-08-04T17:10:10.114Z,20.10
2017-08-04T17:12:38.441Z,20.00
2017-08-04T17:15:06.769Z,20.10
2017-08-04T17:17:35.525Z,20.20
2017-08-04T17:20:03.859Z,20.20
2017-08-04T17:22:32.256Z,20.20
2017-08-04T17:25:01.510Z,20.10
2017-08-04T17:27:29.930Z,20.00
2017-08-04T17:29:58.381Z,20.00
2017-08-04T17:32:27.691Z,20.00
2017-08-04T17:34:56.101Z,19.90
2017-08-04T17:37:24.676Z,19.90
2017-08-04T17:39:53.353Z,19.80
2017-08-04T17:42:21.876Z,19.70
2017-08-04T17:44:50.496Z,19.60
2017-08-04T17:47:19.746Z,19.60
2017-08-04T17:49:48.636Z,19.50
2017-08-04T17:52:17.631Z,19.50
2017-08-04T17:54:46.918Z,19.40
2017-08-04T17:57:16.126Z,19.40
2017-08-04T17:59:45.608Z,19.40
2017-08-04T18:02:15.475Z,19.40
2017-08-04T18:04:43.817Z,19.40
2017-08-04T18:07:12.153Z,19.40
2017-08-04T18:09:42.864Z,19.60
2017-08-04T18:12:11.973Z,19.70
2017-08-04T18:14:40.424Z,19.70
2017-08-04T18:17:09.034Z,19.70
2017-08-04T18:19:38.380Z,19.60
2017-08-04T18:22:07.554Z,19.30
2017-08-04T18:24:36.804Z,19.10
2017-08-04T18:27:05.115Z,19.10
2017-08-04T18:29:33.436Z,19.00
2017-08-04T18:32:01.914Z,19.00
2017-08-04T18:34:30.265Z,18.90
2017-08-04T18:36:58.624Z,18.90
2017-08-04T18:39:27.054Z,18.80
2017-08-04T18:41:55.512Z,18.80
2017-08-04T18:44:24.029Z,18.70
2017-08-04T18:46:52.732Z,18.70
2017-08-04T18:49:21.421Z,18.60
2017-08-04T18:51:49.953Z,18.60
2017-08-04T18:54:20.847Z,18.60
2017-08-04T18:56:49.588Z,18.50
2017-08-04T18:59:18.183Z,18.60
2017-08-04T19:01:47.580Z,18.50
2017-08-04T19:04:17.333Z,18.50
2017-08-04T19:06:46.820Z,18.40
2017-08-04T19:09:17.778Z,18.30
2017-08-04T19:11:48.132Z,18.30
2017-08-04T19:14:17.404Z,18.30
2017-08-04T19:16:47.811Z,18.20
2017-08-04T19:19:16.476Z,18.20
2017-08-04T19:21:46.434Z,18.20
2017-08-04T19:24:16.098Z,18.20
2017-08-04T19:26:44.694Z,18.20
2017-08-04T19:29:13.908Z,18.10
2017-08-04T19:31:43.384Z,18.10
2017-08-04T19:34:11.840Z,18.10
2017-08-04T19:36:40.174Z,18.00
2017-08-04T19:39:08.775Z,18.00
2017-08-04T19:41:37.112Z,17.90
2017-08-04T19:44:05.493Z,17.90
2017-08-04T19:46:34.050Z,17.90
2017-08-04T19:49:02.389Z,17.80
2017-08-04T19:51:30.718Z,17.80
2017-08-04T19:53:59.851Z,17.80
2017-08-04T19:56:28.402Z,17.70
2017-08-04T19:58:56.782Z,17.70
2017-08-04T20:01:25.702Z,17.70
2017-08-04T20:03:54.328Z,17.60
2017-08-04T20:06:23.091Z,17.60
2017-08-04T20:08:52.937Z,17.50
2017-08-04T20:11:22.242Z,17.50
2017-08-04T20:13:50.832Z,17.50
2017-08-04T20:16:19.836Z,17.50
2017-08-04T20:18:48.936Z,17.50
2017-08-04T20:21:17.384Z,17.50
2017-08-04T20:23:45.958Z,17.50
2017-08-04T20:26:14.317Z,17.40
2017-08-04T20:28:42.710Z,17.40
2017-08-04T20:31:11.070Z,17.30
2017-08-04T20:33:39.392Z,17.30
2017-08-04T20:36:08.674Z,17.30
2017-08-04T20:38:37.372Z,17.30
2017-08-04T20:41:05.706Z,17.30
2017-08-04T20:43:34.079Z,17.20
2017-08-04T20:46:02.457Z,17.30
2017-08-04T20:48:30.806Z,17.20
2017-08-04T20:50:59.225Z,17.20
2017-08-04T20:53:28.362Z,17.20
2017-08-04T20:55:56.748Z,17.10
2017-08-04T20:58:25.120Z,17.10
2017-08-04T21:00:54.063Z,17.10
2017-08-04T21:03:22.497Z,17.10
2017-08-04T21:05:51.190Z,17.00
2017-08-04T21:08:20.141Z,17.00
2017-08-04T21:10:49.281Z,17.00
2017-08-04T21:13:18.457Z,17.00
2017-08-04T21:15:47.381Z,17.00
2017-08-04T21:18:17.452Z,17.00
2017-08-04T21:20:46.038Z,17.00
2017-08-04T21:23:16.637Z,17.00
2017-08-04T21:25:45.957Z,16.90
2017-08-04T21:28:16.524Z,16.90
2017-08-04T21:30:46.273Z,16.90
2017-08-04T21:33:15.635Z,16.90
2017-08-04T21:35:44.632Z,16.90
2017-08-04T21:38:13.061Z,16.90
2017-08-04T21:40:41.494Z,16.90
2017-08-04T21:43:09.915Z,16.90
2017-08-04T21:45:39.545Z,16.90
2017-08-04T21:48:07.926Z,16.90
2017-08-04T21:50:36.241Z,16.90
2017-08-04T21:53:05.777Z,16.80
2017-08-04T21:55:34.097Z,16.80
2017-08-04T21:58:03.170Z,16.80
2017-08-04T22:00:32.485Z,16.80
2017-08-04T22:03:01.671Z,16.80
2017-08-04T22:05:30.134Z,16.80
2017-08-04T22:07:59.489Z,16.80
2017-08-04T22:10:27.981Z,16.80
2017-08-04T22:12:56.550Z,16.80
2017-08-04T22:15:26.925Z,16.70
2017-08-04T22:17:55.460Z,16.70
2017-08-04T22:20:24.091Z,16.70
2017-08-04T22:22:53.310Z,16.60
2017-08-04T22:25:21.751Z,16.60
2017-08-04T22:27:50.259Z,16.60
2017-08-04T22:30:20.778Z,16.50
2017-08-04T22:32:50.110Z,16.50
2017-08-04T22:35:19.458Z,16.50
2017-08-04T22:37:48.405Z,16.50
2017-08-04T22:40:21.419Z,16.50
2017-08-04T22:42:52.150Z,16.40
2017-08-04T22:45:21.446Z,16.50
2017-08-04T22:47:50.094Z,16.50
2017-08-04T22:50:19.221Z,16.50
2017-08-04T22:52:47.732Z,16.50
2017-08-04T22:55:17.102Z,16.40
2017-08-04T22:57:47.067Z,16.30
2017-08-04T23:00:16.500Z,16.30
2017-08-04T23:02:45.735Z,16.30
2017-08-04T23:05:14.557Z,16.30
2017-08-04T23:07:42.943Z,16.30
2017-08-04T23:10:11.266Z,16.20
2017-08-04T23:12:40.423Z,16.20
2017-08-04T23:15:08.743Z,16.20
2017-08-04T23:17:37.828Z,16.20
2017-08-04T23:20:06.991Z,16.10
2017-08-04T23:22:35.341Z,16.10
2017-08-04T23:25:03.689Z,16.10
2017-08-04T23:27:32.268Z,16.10
2017-08-04T23:30:00.782Z,16.10
2017-08-04T23:32:29.585Z,16.10
2017-08-04T23:34:59.308Z,16.00
2017-08-04T23:37:29.201Z,16.10
2017-08-04T23:39:57.761Z,16.10
2017-08-04T23:42:28.149Z,16.00
2017-08-04T23:44:57.101Z,16.00
2017-08-04T23:47:25.930Z,16.00
2017-08-04T23:49:55.545Z,16.00
2017-08-04T23:52:24.545Z,16.00
2017-08-04T23:54:52.925Z,16.00
2017-08-04T23:57:21.716Z,16.00
2017-08-04T23:59:51.311Z,16.00
